Impacts METAR Board
IDs:

KGPM - Grand Prairie Muni, TX, US

Updated at: 0600 UTC 19 Aug 2019
Potential Impact None Slight Moderate High
Time 18/18Z 18/19Z 18/20Z 18/21Z 18/22Z 18/23Z 19/00Z 19/01Z 19/02Z 19/03Z 19/04Z 19/05Z 19/06Z
Temp93 97 97 99 99 99 97 94 92 90 89 87 86
Dewpt68 66 66 64 64 63 63 64 64 65 66 66 69
Altim29.91 29.89 29.88 29.86 29.85 29.84 29.82 29.84 29.85 29.88 29.90 29.91 29.92
VIS10 10 10 10 10 10 10 10 10 10 10 10 10
CIG-- -- -- -- -- -- -- -- -- -- -- -- --
CoverSKCSKCSKCSKCSKCSKCSKCCLRCLRCLRCLRCLRCLR
FltCatVFRVFRVFRVFRVFRVFRVFRVFRVFRVFRVFRVFRVFR
WX--------------------------
WDir180180170150100120140140120120130150150
WSpd9 10 8 7 8 11 10 7 4 5 5 5 5
WGst15 -- -- -- -- -- 16 -- -- -- -- -- --
Raw hourly METARs
KGPM 181750Z 18009G15KT 10SM SKC 34/20 A2991
KGPM 181850Z 18010KT 10SM SKC 36/19 A2989
KGPM 181950Z 17008KT 10SM SKC 36/19 A2988
KGPM 182050Z 15007KT 10SM SKC 37/18 A2986
KGPM 182150Z 10008KT 10SM SKC 37/18 A2985
KGPM 182250Z 12011KT 10SM SKC 37/17 A2984
KGPM 182350Z 14010G16KT 10SM SKC 36/17 A2982
KGPM 190055Z AUTO 14007KT 10SM CLR 35/18 A2984 RMK AO2 T03470176
KGPM 190155Z AUTO 12004KT 10SM CLR 33/18 A2985 RMK AO2 T03320176
KGPM 190255Z AUTO 12005KT 10SM CLR 32/19 A2988 RMK AO2 T03210185
KGPM 190355Z AUTO 13005KT 10SM CLR 32/19 A2990 RMK AO2 T03150188
KGPM 190455Z AUTO 15005KT 10SM CLR 31/19 A2991 RMK AO2 T03060191
KGPM 190555Z AUTO 15005KT 10SM CLR 30/20 A2992 RMK AO2 T03020203 10361 20302 403750265



Page loaded:  06:17 UTC  |   11:17 PM Pacific  |   12:17 AM Mountain  |   01:17 AM Central  |   02:17 AM Eastern

 

ADVISORIES

FORECASTS

FORECASTS

OBSERVATIONS

USER TOOLS

ABOUT US